Time;durP1;ratioP1;P1;durP2;ratioP2;P2;SDS_P1;SDS_P2;PMS_P1;PMS_P2;Temp;Humidity;BMP_temperature;BMP_pressure;BME280_temperature;BME280_humidity;BME280_pressure;Samples;Min_cycle;Max_cycle;Signal;HPM_P1;HPM_P2
2022/03/31 00:01:16;;;;;;;;;8.20;7.00;;;;;6.66;60.11;98381.81;5096692;28;8850;-61
2022/03/31 00:03:43;;;;;;;;;7.00;5.60;;;;;6.69;59.93;98376.25;5096882;28;8832;-63
2022/03/31 00:06:11;;;;;;;;;9.00;7.00;;;;;6.70;60.48;98375.28;5096844;28;9535;-63
2022/03/31 00:08:39;;;;;;;;;8.60;8.20;;;;;6.71;59.79;98375.16;5096562;28;8848;-63
2022/03/31 00:11:07;;;;;;;;;3.00;3.00;;;;;6.71;60.17;98372.50;5096584;28;8898;-62
2022/03/31 00:13:35;;;;;;;;;8.60;8.60;;;;;6.75;59.83;98375.72;5096580;28;8865;-63
2022/03/31 00:16:02;;;;;;;;;7.80;7.00;;;;;6.75;59.80;98365.13;5096154;28;8845;-62
2022/03/31 00:18:31;;;;;;;;;10.00;8.20;;;;;6.75;60.18;98368.59;5095908;28;8917;-61
2022/03/31 00:20:58;;;;;;;;;6.40;6.00;;;;;6.76;59.96;98364.16;5095947;28;8897;-63
2022/03/31 00:23:26;;;;;;;;;3.40;3.40;;;;;6.74;59.66;98366.09;5095273;28;8923;-61
2022/03/31 00:25:54;;;;;;;;;7.00;6.80;;;;;6.75;59.83;98368.59;5095032;28;8823;-62
2022/03/31 00:28:22;;;;;;;;;7.40;7.40;;;;;6.78;59.65;98364.84;5094485;28;8966;-62
2022/03/31 00:30:50;;;;;;;;;10.20;9.00;;;;;6.79;60.20;98367.34;5094896;28;8970;-63
2022/03/31 00:33:18;;;;;;;;;4.80;4.80;;;;;6.81;59.63;98367.22;5095146;28;8855;-63
2022/03/31 00:35:45;;;;;;;;;8.20;7.00;;;;;6.82;59.88;98364.44;5094280;28;8836;-63
2022/03/31 00:38:13;;;;;;;;;9.40;7.00;;;;;6.84;59.76;98361.66;5094358;28;8850;-63
2022/03/31 00:40:41;;;;;;;;;9.60;9.00;;;;;6.85;59.71;98356.22;5095523;28;9609;-62
2022/03/31 00:43:08;;;;;;;;;9.00;8.60;;;;;6.87;60.00;98356.94;5096119;28;8890;-62
2022/03/31 00:45:46;;;;;;;;;9.00;9.00;;;;;6.89;59.79;98362.09;5095621;28;8831;-62
2022/03/31 00:48:15;;;;;;;;;10.20;7.80;;;;;6.89;60.13;98364.72;5096115;28;8838;-62
2022/03/31 00:50:43;;;;;;;;;9.00;9.00;;;;;6.89;60.02;98360.25;5096199;28;9524;-62
2022/03/31 00:53:11;;;;;;;;;7.40;6.00;;;;;6.92;59.54;98361.81;5096165;28;8862;-61
2022/03/31 00:55:56;;;;;;;;;9.00;7.40;;;;;6.92;59.56;98353.88;5096164;28;9521;-62
2022/03/31 00:58:23;;;;;;;;;4.80;2.60;;;;;6.91;59.60;98352.19;5095895;28;8912;-62
2022/03/31 01:00:51;;;;;;;;;7.00;6.60;;;;;6.90;59.66;98355.81;5095563;28;8850;-62
2022/03/31 01:03:19;;;;;;;;;6.60;6.40;;;;;6.91;59.77;98354.84;5095576;28;8839;-61
2022/03/31 01:05:47;;;;;;;;;9.00;8.60;;;;;6.89;59.96;98349.69;5095684;28;8856;-62
2022/03/31 01:08:15;;;;;;;;;9.20;8.40;;;;;6.86;59.80;98349.97;5095576;28;8824;-62
2022/03/31 01:10:42;;;;;;;;;7.80;7.00;;;;;6.84;60.06;98351.06;5095405;28;8857;-62
2022/03/31 01:13:10;;;;;;;;;6.80;6.80;;;;;6.82;60.15;98345.09;5095582;28;8828;-62
2022/03/31 01:15:38;;;;;;;;;8.20;6.00;;;;;6.80;60.56;98341.72;5095516;28;8866;-62
2022/03/31 01:18:06;;;;;;;;;7.60;7.40;;;;;6.78;60.20;98336.59;5094646;28;8861;-62
2022/03/31 01:20:35;;;;;;;;;6.20;5.20;;;;;6.76;60.60;98338.53;5094759;28;8840;-62
2022/03/31 01:23:02;;;;;;;;;8.60;7.40;;;;;6.74;60.09;98337.84;5094949;28;8843;-62
2022/03/31 01:25:30;;;;;;;;;12.80;10.80;;;;;6.74;60.14;98329.06;5095252;28;8847;-64
2022/03/31 01:27:57;;;;;;;;;14.20;10.60;;;;;6.76;60.54;98329.78;5095355;28;8925;-62
2022/03/31 01:30:25;;;;;;;;;7.80;7.80;;;;;6.77;60.15;98323.50;5094804;28;8854;-62
2022/03/31 01:32:54;;;;;;;;;4.80;4.80;;;;;6.77;60.34;98321.72;5094980;28;8934;-62
2022/03/31 01:35:23;;;;;;;;;10.00;8.60;;;;;6.76;60.29;98320.00;5095087;28;8820;-62
2022/03/31 01:37:51;;;;;;;;;6.60;5.80;;;;;6.73;60.21;98327.38;5095351;28;8828;-63
2022/03/31 01:40:18;;;;;;;;;9.00;9.00;;;;;6.67;60.82;98320.03;5095052;28;8828;-63
2022/03/31 01:42:46;;;;;;;;;7.00;6.60;;;;;6.62;60.90;98324.88;5095338;28;8840;-63
2022/03/31 01:45:14;;;;;;;;;5.20;4.00;;;;;6.58;60.64;98323.47;5095485;28;8908;-63
2022/03/31 01:47:42;;;;;;;;;9.80;6.80;;;;;6.56;60.53;98314.84;5095059;28;8819;-64
2022/03/31 01:50:10;;;;;;;;;8.20;8.20;;;;;6.53;61.22;98315.94;5094736;28;8839;-64
2022/03/31 01:52:37;;;;;;;;;9.20;7.00;;;;;6.54;61.18;98314.16;5094977;28;9216;-63
2022/03/31 01:55:05;;;;;;;;;7.00;6.40;;;;;6.52;61.03;98318.75;5095174;28;8837;-64
2022/03/31 01:57:33;;;;;;;;;9.00;9.00;;;;;6.52;60.81;98308.16;5094086;28;8966;-64
2022/03/31 02:00:02;;;;;;;;;8.20;8.20;;;;;6.50;61.25;98310.09;5095342;28;8852;-64
2022/03/31 02:02:30;;;;;;;;;6.20;6.00;;;;;6.47;61.19;98299.81;5094814;28;8954;-64
2022/03/31 02:04:58;;;;;;;;;12.00;10.00;;;;;6.45;61.15;98301.75;5094876;28;8831;-64
2022/03/31 02:07:26;;;;;;;;;10.40;7.80;;;;;6.42;61.08;98299.38;5095205;28;8832;-65
2022/03/31 02:09:53;;;;;;;;;9.00;7.80;;;;;6.41;61.14;98293.25;5095091;28;8842;-63
2022/03/31 02:12:21;;;;;;;;;9.60;8.00;;;;;6.39;61.49;98292.56;5095081;28;8871;-64
2022/03/31 02:14:49;;;;;;;;;6.20;4.80;;;;;6.36;61.35;98294.66;5094594;28;8820;-64
2022/03/31 02:17:17;;;;;;;;;9.80;8.60;;;;;6.34;61.91;98291.28;5095295;28;8831;-64
2022/03/31 02:19:45;;;;;;;;;9.60;9.00;;;;;6.34;61.41;98294.78;5094349;28;8831;-64
2022/03/31 02:22:12;;;;;;;;;12.00;9.60;;;;;6.32;61.35;98291.44;5094654;28;8828;-63
2022/03/31 02:24:40;;;;;;;;;11.60;9.80;;;;;6.32;61.47;98280.88;5095133;28;8831;-63
2022/03/31 02:27:07;;;;;;;;;9.20;7.00;;;;;6.35;61.32;98290.31;5094256;28;8997;-64
2022/03/31 02:29:35;;;;;;;;;6.20;6.00;;;;;6.33;61.71;98286.97;5094956;28;8816;-63
2022/03/31 02:32:04;;;;;;;;;12.60;10.80;;;;;6.32;61.95;98282.66;5094505;28;8836;-63
2022/03/31 02:34:32;;;;;;;;;9.20;9.00;;;;;6.32;61.74;98286.16;5094614;28;8843;-64
2022/03/31 02:36:59;;;;;;;;;7.00;6.60;;;;;6.34;61.50;98286.00;5094467;28;8855;-64
2022/03/31 02:39:28;;;;;;;;;9.60;9.40;;;;;6.36;61.62;98284.09;5094844;28;8831;-63
2022/03/31 02:41:57;;;;;;;;;10.40;8.60;;;;;6.35;61.90;98282.38;5094489;28;8843;-63
2022/03/31 02:44:25;;;;;;;;;11.80;9.20;;;;;6.34;61.89;98273.63;5094277;28;8847;-63
2022/03/31 02:46:52;;;;;;;;;7.00;7.00;;;;;6.34;62.27;98278.06;5094132;28;8837;-64
2022/03/31 02:49:20;;;;;;;;;9.20;8.80;;;;;6.32;62.09;98274.75;5094363;28;8959;-63
2022/03/31 02:51:48;;;;;;;;;3.80;3.60;;;;;6.31;61.84;98270.44;5094322;28;8827;-64
2022/03/31 02:57:01;;;;;;;;;11.40;8.60;;;;;6.38;61.91;98263.63;5094141;28;9509;-64
2022/03/31 02:59:30;;;;;;;;;8.20;8.20;;;;;6.40;62.31;98254.59;5094751;28;9548;-63
2022/03/31 03:01:58;;;;;;;;;10.80;10.00;;;;;6.37;62.33;98259.31;5094238;28;9535;-64
2022/03/31 03:04:27;;;;;;;;;8.00;7.40;;;;;6.33;62.17;98248.19;5094888;28;8965;-64
2022/03/31 03:06:55;;;;;;;;;6.20;5.60;;;;;6.29;62.18;98259.97;5094629;28;8961;-63
2022/03/31 03:09:23;;;;;;;;;7.20;6.40;;;;;6.24;62.26;98259.56;5097883;28;8867;-64
2022/03/31 03:11:50;;;;;;;;;4.80;4.80;;;;;6.19;63.01;98255.66;5097665;28;9672;-64
2022/03/31 03:14:18;;;;;;;;;9.80;9.20;;;;;6.14;62.39;98252.59;5097916;28;8820;-64
2022/03/31 03:16:46;;;;;;;;;7.60;7.40;;;;;6.11;62.94;98245.78;5097727;28;8828;-64
2022/03/31 03:19:14;;;;;;;;;8.40;6.80;;;;;6.08;62.99;98246.03;5097886;28;8840;-64
2022/03/31 03:21:41;;;;;;;;;6.80;6.80;;;;;6.06;62.60;98244.53;5097041;28;8849;-64
2022/03/31 03:24:10;;;;;;;;;12.40;11.20;;;;;6.04;62.63;98254.38;5098095;28;8854;-64
2022/03/31 03:26:38;;;;;;;;;9.20;9.20;;;;;6.02;62.72;98245.75;5097446;28;8827;-64
2022/03/31 03:29:06;;;;;;;;;9.40;9.00;;;;;6.01;62.61;98238.81;5096610;28;8839;-64
2022/03/31 03:31:33;;;;;;;;;14.60;12.60;;;;;6.00;62.45;98248.50;5095585;28;8843;-63
2022/03/31 03:34:01;;;;;;;;;6.60;4.20;;;;;6.01;63.42;98249.38;5096658;28;8816;-63
2022/03/31 03:36:29;;;;;;;;;8.80;8.40;;;;;6.02;62.75;98251.03;5097065;28;8827;-64
2022/03/31 03:38:56;;;;;;;;;5.60;4.80;;;;;6.01;63.19;98244.09;5096445;28;8840;-65
2022/03/31 03:41:24;;;;;;;;;9.80;9.80;;;;;6.04;63.17;98246.44;5097067;28;8989;-65
2022/03/31 03:43:52;;;;;;;;;12.00;11.20;;;;;6.06;63.09;98245.34;5097306;28;8819;-65
2022/03/31 03:46:19;;;;;;;;;6.20;4.80;;;;;6.12;62.96;98242.16;5097168;28;8816;-65
2022/03/31 03:48:47;;;;;;;;;10.20;9.40;;;;;6.18;62.45;98240.78;5096962;28;8920;-65
2022/03/31 03:51:15;;;;;;;;;9.20;7.00;;;;;6.18;62.45;98241.63;5097131;28;8832;-65
2022/03/31 03:53:43;;;;;;;;;10.40;10.40;;;;;6.19;62.83;98234.50;5096907;28;8848;-65
2022/03/31 03:56:11;;;;;;;;;10.00;10.00;;;;;6.19;62.71;98242.44;5096942;28;8819;-64
2022/03/31 03:58:39;;;;;;;;;9.00;9.00;;;;;6.19;62.59;98234.50;5096202;28;9481;-65
2022/03/31 04:01:06;;;;;;;;;12.00;10.80;;;;;6.16;62.98;98230.31;5096148;28;8838;-65
2022/03/31 04:03:34;;;;;;;;;7.00;6.00;;;;;6.16;62.86;98245.38;5096799;28;8837;-65
2022/03/31 04:06:02;;;;;;;;;12.00;12.00;;;;;6.15;62.87;98241.06;5095622;28;8857;-65
2022/03/31 04:08:30;;;;;;;;;12.00;10.00;;;;;6.15;63.08;98235.78;5095629;28;8832;-65
2022/03/31 04:10:57;;;;;;;;;11.60;10.40;;;;;6.17;63.21;98233.81;5095733;28;8843;-65
2022/03/31 04:13:25;;;;;;;;;13.60;12.20;;;;;6.19;62.91;98231.88;5095662;28;8858;-65
2022/03/31 04:15:53;;;;;;;;;13.20;11.60;;;;;6.17;63.01;98229.38;5095068;28;8934;-65
2022/03/31 04:18:21;;;;;;;;;10.00;9.40;;;;;6.18;63.25;98235.47;5094565;28;8819;-66
2022/03/31 04:20:52;;;;;;;;;10.40;8.60;;;;;6.15;63.67;98226.03;5094279;28;8908;-65
2022/03/31 04:23:20;;;;;;;;;11.20;10.80;;;;;6.15;63.49;98230.47;5095086;28;8850;-65
2022/03/31 04:25:48;;;;;;;;;6.20;6.00;;;;;6.13;63.48;98225.31;5095352;28;9511;-65
2022/03/31 04:28:15;;;;;;;;;12.60;11.60;;;;;6.11;63.73;98224.63;5095207;28;8839;-65
2022/03/31 04:30:43;;;;;;;;;14.00;12.60;;;;;6.14;63.57;98223.53;5095594;28;8836;-65
2022/03/31 04:33:11;;;;;;;;;10.00;9.00;;;;;6.17;63.60;98223.25;5096639;28;8827;-65
2022/03/31 04:35:39;;;;;;;;;10.40;9.60;;;;;6.18;63.36;98228.41;5096136;28;8828;-65
2022/03/31 04:38:06;;;;;;;;;6.80;6.00;;;;;6.20;63.99;98228.25;5095043;28;8889;-64
2022/03/31 04:40:34;;;;;;;;;10.80;9.40;;;;;6.20;63.91;98233.53;5092637;28;8847;-65
2022/03/31 04:43:02;;;;;;;;;14.20;12.40;;;;;6.18;63.89;98230.19;5093034;28;8844;-65
2022/03/31 04:45:30;;;;;;;;;9.60;9.00;;;;;6.16;63.97;98229.50;5093580;28;8837;-64
2022/03/31 04:47:57;;;;;;;;;11.60;9.80;;;;;6.14;63.88;98232.28;5092840;28;8835;-65
2022/03/31 04:50:26;;;;;;;;;15.20;12.60;;;;;6.11;64.08;98229.94;5092930;28;8850;-65
2022/03/31 04:52:53;;;;;;;;;16.40;14.20;;;;;6.10;63.67;98224.75;5092975;28;8851;-65
2022/03/31 04:55:21;;;;;;;;;11.00;10.00;;;;;6.13;64.30;98227.13;5094145;28;8982;-65
2022/03/31 04:57:49;;;;;;;;;14.40;12.40;;;;;6.14;64.03;98228.81;5094025;28;9540;-65
2022/03/31 05:00:17;;;;;;;;;11.40;11.20;;;;;6.15;64.04;98231.31;5093913;28;8839;-64
2022/03/31 05:02:44;;;;;;;;;9.00;9.00;;;;;6.16;63.90;98234.78;5095033;28;8811;-64
2022/03/31 05:05:13;;;;;;;;;14.00;13.60;;;;;6.15;64.20;98230.47;5094560;28;8849;-63
2022/03/31 05:07:40;;;;;;;;;13.00;12.60;;;;;6.15;64.38;98228.66;5095886;28;8976;-62
2022/03/31 05:10:08;;;;;;;;;9.00;9.00;;;;;6.16;64.16;98227.69;5095379;28;8860;-63
2022/03/31 05:12:36;;;;;;;;;10.00;8.60;;;;;6.16;64.08;98232.97;5094938;28;8874;-62
2022/03/31 05:15:03;;;;;;;;;15.20;14.60;;;;;6.17;64.44;98239.09;5094824;28;8843;-64
2022/03/31 05:17:31;;;;;;;;;9.40;9.00;;;;;6.17;64.46;98224.09;5093794;28;8935;-64
2022/03/31 05:19:59;;;;;;;;;18.20;14.20;;;;;6.18;64.21;98235.47;5093662;28;8844;-64
2022/03/31 05:22:27;;;;;;;;;15.00;14.20;;;;;6.21;64.48;98225.47;5094302;28;8857;-64
2022/03/31 05:24:54;;;;;;;;;9.80;6.60;;;;;6.25;64.06;98226.88;5093622;28;8853;-65
2022/03/31 05:27:22;;;;;;;;;15.40;13.80;;;;;6.30;64.05;98227.28;5094607;28;8849;-64
2022/03/31 05:29:50;;;;;;;;;15.20;13.60;;;;;6.33;64.00;98223.53;5094967;28;8835;-64
2022/03/31 05:32:18;;;;;;;;;12.80;9.00;;;;;6.36;64.11;98226.75;5093206;28;8839;-64
2022/03/31 05:34:45;;;;;;;;;10.00;7.80;;;;;6.37;63.79;98219.66;5092715;28;9251;-63
2022/03/31 05:37:14;;;;;;;;;18.20;15.20;;;;;6.35;64.66;98218.94;5092526;28;8842;-65
2022/03/31 05:39:42;;;;;;;;;13.60;12.20;;;;;6.33;64.02;98221.75;5091801;28;8827;-64
2022/03/31 05:42:09;;;;;;;;;14.20;10.40;;;;;6.37;64.25;98224.94;5091473;28;8911;-64
2022/03/31 05:44:37;;;;;;;;;13.00;12.20;;;;;6.38;64.33;98219.50;5092599;28;9513;-64
2022/03/31 05:47:05;;;;;;;;;17.80;15.80;;;;;6.40;64.36;98222.88;5090991;28;8851;-64
2022/03/31 05:49:33;;;;;;;;;12.20;12.20;;;;;6.41;64.56;98221.88;5090515;28;8831;-64
2022/03/31 05:52:00;;;;;;;;;18.40;14.40;;;;;6.43;64.32;98225.22;5089347;28;9199;-65
2022/03/31 05:54:29;;;;;;;;;17.60;15.80;;;;;6.47;64.03;98223.13;5088657;28;8854;-64
2022/03/31 05:56:57;;;;;;;;;16.40;14.60;;;;;6.48;64.56;98215.06;5089366;28;8859;-64
2022/03/31 05:59:24;;;;;;;;;9.20;7.80;;;;;6.54;64.35;98213.69;5089464;28;8827;-64
2022/03/31 06:01:52;;;;;;;;;14.40;12.00;;;;;6.55;64.10;98220.63;5089243;28;8847;-64
2022/03/31 06:04:21;;;;;;;;;12.20;11.60;;;;;6.56;64.24;98215.22;5086385;28;8835;-65
2022/03/31 06:06:49;;;;;;;;;8.60;8.60;;;;;6.57;64.76;98213.38;5085655;28;8844;-64
2022/03/31 06:09:16;;;;;;;;;8.00;7.80;;;;;6.58;64.76;98220.34;5086062;28;8916;-64
2022/03/31 06:11:44;;;;;;;;;13.40;13.00;;;;;6.60;64.47;98215.78;5085588;28;8852;-64
2022/03/31 06:14:12;;;;;;;;;13.80;13.20;;;;;6.61;64.59;98215.59;5085239;28;8827;-64
2022/03/31 06:16:40;;;;;;;;;20.60;15.60;;;;;6.62;64.58;98216.47;5086877;28;8856;-64
2022/03/31 06:19:09;;;;;;;;;12.60;12.00;;;;;6.67;64.13;98219.53;5090070;28;8863;-64
2022/03/31 06:21:36;;;;;;;;;12.80;12.20;;;;;6.70;64.71;98212.16;5089491;28;8889;-64
2022/03/31 06:24:04;;;;;;;;;5.80;4.40;;;;;6.73;64.53;98213.66;5089718;28;8831;-64
2022/03/31 06:26:32;;;;;;;;;16.00;16.00;;;;;6.74;64.31;98220.63;5092166;28;9541;-64
2022/03/31 06:29:00;;;;;;;;;14.20;13.00;;;;;6.77;64.39;98220.34;5092160;28;8843;-64
2022/03/31 06:31:28;;;;;;;;;7.40;7.00;;;;;6.80;64.15;98218.25;5092313;28;9505;-64
2022/03/31 06:33:55;;;;;;;;;10.20;10.20;;;;;6.84;65.14;98218.81;5092733;28;8877;-64
2022/03/31 06:36:23;;;;;;;;;13.00;9.20;;;;;6.86;64.09;98219.50;5092479;28;8824;-64
2022/03/31 06:38:51;;;;;;;;;17.20;14.80;;;;;6.91;64.75;98219.91;5089419;28;9513;-64
2022/03/31 06:41:18;;;;;;;;;15.00;12.60;;;;;6.93;64.74;98216.16;5089982;28;9509;-69
2022/03/31 06:43:46;;;;;;;;;13.80;11.80;;;;;6.96;64.00;98212.41;5093069;28;8835;-64
2022/03/31 06:46:14;;;;;;;;;15.80;15.00;;;;;7.02;64.31;98219.75;5092999;28;9817;-65
2022/03/31 06:48:42;;;;;;;;;12.80;12.40;;;;;7.05;64.10;98220.28;5094552;28;8827;-64
2022/03/31 06:51:10;;;;;;;;;15.00;10.40;;;;;7.10;64.55;98215.41;5093813;28;8832;-64
2022/03/31 06:53:38;;;;;;;;;10.80;8.20;;;;;7.15;64.17;98217.63;5095680;28;8861;-65
2022/03/31 06:56:05;;;;;;;;;11.20;9.20;;;;;7.22;64.61;98216.09;5094640;28;8835;-64
2022/03/31 06:58:34;;;;;;;;;9.80;8.80;;;;;7.29;64.33;98215.34;5093727;28;8854;-65
2022/03/31 07:01:02;;;;;;;;;9.40;9.00;;;;;7.33;64.11;98214.09;5094744;28;8846;-64
2022/03/31 07:03:30;;;;;;;;;15.60;13.00;;;;;7.37;64.04;98212.84;5093577;28;8985;-64
2022/03/31 07:05:57;;;;;;;;;13.80;13.80;;;;;7.41;64.09;98218.66;5092061;28;8839;-64
2022/03/31 07:08:25;;;;;;;;;12.00;10.00;;;;;7.43;64.32;98217.53;5089963;28;8831;-64
2022/03/31 07:10:53;;;;;;;;;6.20;3.80;;;;;7.46;64.08;98211.13;5093928;28;8855;-64
2022/03/31 07:13:21;;;;;;;;;10.00;8.60;;;;;7.49;64.31;98214.31;5095475;28;8847;-64
2022/03/31 07:15:48;;;;;;;;;11.20;9.00;;;;;7.51;64.29;98214.19;5095234;28;8847;-64
2022/03/31 07:18:16;;;;;;;;;9.20;7.80;;;;;7.53;64.44;98201.63;5095504;28;8816;-64
2022/03/31 07:20:47;;;;;;;;;7.40;6.20;;;;;7.58;64.15;98202.03;5096387;28;8828;-64
2022/03/31 07:23:14;;;;;;;;;7.80;6.20;;;;;7.61;64.33;98201.72;5095024;28;9745;-65
2022/03/31 07:25:42;;;;;;;;;14.20;12.00;;;;;7.64;64.39;98198.81;5094675;28;9005;-63
2022/03/31 07:28:10;;;;;;;;;10.00;10.00;;;;;7.68;63.97;98194.84;5094861;28;8970;-64
2022/03/31 07:30:37;;;;;;;;;9.40;9.00;;;;;7.69;64.07;98195.53;5094851;28;8835;-64
2022/03/31 07:33:05;;;;;;;;;12.40;11.20;;;;;7.68;64.29;98193.88;5094445;28;8835;-64
2022/03/31 07:35:34;;;;;;;;;12.40;10.20;;;;;7.69;64.55;98195.53;5093360;28;9324;-64
2022/03/31 07:38:03;;;;;;;;;12.00;11.60;;;;;7.71;64.42;98200.69;5092127;28;8898;-64
2022/03/31 07:40:31;;;;;;;;;3.40;3.40;;;;;7.77;63.83;98197.47;5089627;28;8835;-64
2022/03/31 07:42:58;;;;;;;;;8.60;7.60;;;;;7.78;63.91;98199.97;5091567;28;8843;-64
2022/03/31 07:45:26;;;;;;;;;5.20;5.20;;;;;7.82;64.33;98201.34;5092535;28;8844;-64
2022/03/31 07:47:54;;;;;;;;;14.20;12.40;;;;;7.89;63.98;98199.75;5092259;28;8848;-64
2022/03/31 07:50:21;;;;;;;;;14.20;12.40;;;;;7.96;63.49;98200.84;5092356;28;8861;-64
2022/03/31 07:52:49;;;;;;;;;12.00;10.80;;;;;8.01;64.20;98195.09;5093119;28;8842;-65
2022/03/31 07:55:17;;;;;;;;;9.60;9.60;;;;;8.06;63.76;98190.19;5092275;28;8835;-64
2022/03/31 07:57:45;;;;;;;;;5.60;5.20;;;;;8.13;63.53;98192.06;5093005;28;8844;-64
2022/03/31 08:00:12;;;;;;;;;10.40;10.20;;;;;8.21;63.61;98183.41;5092386;28;8831;-64
2022/03/31 08:02:41;;;;;;;;;10.00;10.00;;;;;8.27;63.10;98183.63;5094219;28;8977;-64
2022/03/31 08:05:09;;;;;;;;;10.00;9.60;;;;;8.31;63.63;98187.69;5094309;28;8831;-64
2022/03/31 08:07:38;;;;;;;;;4.80;3.00;;;;;8.33;63.83;98177.75;5093107;28;8843;-64
2022/03/31 08:10:07;;;;;;;;;8.20;7.00;;;;;8.33;63.41;98177.75;5093664;28;8862;-61
2022/03/31 08:12:36;;;;;;;;;9.80;9.40;;;;;8.37;63.44;98170.31;5094139;28;8864;-62
2022/03/31 08:15:04;;;;;;;;;10.20;8.60;;;;;8.37;63.51;98172.97;5091478;28;8835;-62
2022/03/31 08:17:32;;;;;;;;;12.00;10.80;;;;;8.38;63.67;98164.84;5091411;28;8839;-63
2022/03/31 08:20:00;;;;;;;;;12.20;10.40;;;;;8.39;63.88;98171.84;5091928;28;8835;-62
2022/03/31 08:22:28;;;;;;;;;13.00;12.00;;;;;8.42;63.69;98176.81;5092655;28;8835;-63
2022/03/31 08:25:00;;;;;;;;;6.20;5.60;;;;;8.43;63.71;98169.72;5091956;28;8928;-62
2022/03/31 08:27:28;;;;;;;;;1.80;1.00;;;;;8.44;64.00;98166.88;5092927;28;8831;-63
2022/03/31 08:29:56;;;;;;;;;14.20;14.00;;;;;8.48;63.98;98176.22;5093948;28;8924;-62
2022/03/31 08:32:24;;;;;;;;;11.20;8.40;;;;;8.54;63.95;98178.28;5093114;28;8835;-63
2022/03/31 08:34:52;;;;;;;;;15.00;12.60;;;;;8.63;63.49;98177.34;5091482;28;8832;-64
2022/03/31 08:37:20;;;;;;;;;11.60;10.20;;;;;8.69;63.38;98165.28;5093578;28;8846;-62
2022/03/31 08:39:48;;;;;;;;;9.60;9.60;;;;;8.70;63.42;98169.59;5092868;28;8827;-62
2022/03/31 08:42:16;;;;;;;;;7.80;7.40;;;;;8.72;63.36;98175.56;5092842;28;8956;-63
2022/03/31 08:44:43;;;;;;;;;12.60;10.20;;;;;8.71;63.61;98174.75;5092018;28;8815;-62
2022/03/31 08:47:12;;;;;;;;;12.80;11.60;;;;;8.71;63.21;98174.75;5092083;28;8835;-62
2022/03/31 08:49:56;;;;;;;;;12.40;12.40;;;;;8.71;63.97;98177.41;5091046;28;8843;-62
2022/03/31 08:52:24;;;;;;;;;14.20;12.00;;;;;8.74;63.89;98187.72;5089098;28;8824;-62
2022/03/31 08:54:52;;;;;;;;;15.80;12.80;;;;;8.88;63.69;98187.16;5090014;28;8843;-62
2022/03/31 08:57:24;;;;;;;;;14.60;13.00;;;;;9.06;63.39;98187.97;5092817;28;8854;-63
2022/03/31 09:00:01;;;;;;;;;13.80;12.40;;;;;9.17;63.08;98187.69;5093376;28;8891;-64
2022/03/31 09:02:29;;;;;;;;;7.80;7.40;;;;;9.21;62.77;98186.41;5092139;28;8835;-63
2022/03/31 09:04:56;;;;;;;;;12.40;10.80;;;;;9.18;62.90;98192.00;5093232;28;8843;-63
2022/03/31 09:07:24;;;;;;;;;15.60;12.00;;;;;9.13;63.19;98191.63;5092397;28;8827;-63
2022/03/31 09:09:52;;;;;;;;;12.20;10.80;;;;;9.07;63.06;98189.63;5092393;28;8835;-62
2022/03/31 09:12:22;;;;;;;;;15.80;14.40;;;;;9.03;63.42;98188.25;5092470;28;8851;-62
2022/03/31 09:14:51;;;;;;;;;14.60;11.60;;;;;9.01;63.60;98187.59;5091536;28;8958;-62
2022/03/31 09:17:19;;;;;;;;;18.20;15.80;;;;;9.03;64.15;98187.44;5091895;28;8920;-62
2022/03/31 09:19:47;;;;;;;;;6.80;5.60;;;;;9.11;63.38;98183.00;5091738;28;9527;-62
2022/03/31 09:22:14;;;;;;;;;13.00;12.00;;;;;9.21;63.35;98186.41;5091580;28;8851;-62
2022/03/31 09:24:42;;;;;;;;;12.60;11.60;;;;;9.27;63.05;98182.28;5090486;28;8920;-62
2022/03/31 09:27:11;;;;;;;;;12.60;12.20;;;;;9.33;63.12;98182.47;5090273;28;8843;-63
2022/03/31 09:29:38;;;;;;;;;17.60;16.00;;;;;9.43;62.49;98163.78;5091760;28;8885;-62
2022/03/31 09:32:06;;;;;;;;;15.40;10.40;;;;;9.49;62.59;98165.81;5090959;28;9490;-62
2022/03/31 09:34:34;;;;;;;;;18.00;15.00;;;;;9.58;62.18;98164.84;5090690;28;8842;-63
2022/03/31 09:37:02;;;;;;;;;15.40;14.20;;;;;9.69;62.47;98160.09;5090650;28;8857;-63
2022/03/31 09:39:30;;;;;;;;;13.00;10.60;;;;;9.79;61.94;98159.97;5090685;28;8981;-62
2022/03/31 09:41:58;;;;;;;;;12.20;10.40;;;;;9.89;62.22;98168.63;5091806;28;8832;-63
2022/03/31 09:44:26;;;;;;;;;16.60;14.60;;;;;9.96;61.70;98165.13;5091799;28;8873;-65
2022/03/31 09:46:54;;;;;;;;;21.20;16.00;;;;;10.07;61.64;98164.88;5089726;28;9282;-62
2022/03/31 09:49:22;;;;;;;;;18.20;16.40;;;;;10.20;61.14;98164.41;5092157;28;9638;-63
2022/03/31 09:51:49;;;;;;;;;17.20;15.60;;;;;10.26;61.15;98169.09;5091701;28;8848;-63
2022/03/31 09:54:18;;;;;;;;;7.00;5.20;;;;;10.27;61.12;98162.75;5088124;28;8847;-63
2022/03/31 09:56:45;;;;;;;;;22.20;18.00;;;;;10.32;61.12;98163.94;5087968;28;8824;-63
2022/03/31 09:59:13;;;;;;;;;18.40;15.00;;;;;10.38;60.54;98162.44;5086485;28;8832;-63
2022/03/31 10:01:49;;;;;;;;;18.00;15.00;;;;;10.47;60.99;98164.94;5087777;28;8836;-63
2022/03/31 10:04:17;;;;;;;;;19.50;15.50;;;;;10.62;60.31;98160.63;5088694;28;8832;-63
2022/03/31 10:06:45;;;;;;;;;11.20;9.00;;;;;10.74;60.12;98164.66;5089576;28;8878;-63
2022/03/31 10:09:13;;;;;;;;;11.25;11.00;;;;;10.76;59.91;98159.97;5088006;28;9210;-63
2022/03/31 10:11:40;;;;;;;;;5.25;3.00;;;;;10.83;60.19;98163.63;5088810;28;8840;-63
2022/03/31 10:14:08;;;;;;;;;14.00;12.50;;;;;10.99;59.90;98163.63;5087460;28;8853;-64
2022/03/31 10:16:44;;;;;;;;;16.75;15.50;;;;;11.12;59.64;98158.63;5087508;28;8865;-63
2022/03/31 10:19:12;;;;;;;;;12.25;11.50;;;;;11.23;59.11;98155.59;5092452;28;9537;-63
2022/03/31 10:21:40;;;;;;;;;12.50;12.00;;;;;11.32;59.17;98149.25;5092044;28;8847;-64
2022/03/31 10:26:53;;;;;;;;;11.00;9.50;;;;;11.44;59.20;98137.22;5093226;28;8973;-63
2022/03/31 10:29:20;;;;;;;;;15.50;12.75;;;;;11.44;58.58;98137.22;5092541;28;8981;-64
2022/03/31 10:31:49;;;;;;;;;18.25;15.50;;;;;11.49;58.90;98140.22;5092064;28;8831;-63
2022/03/31 10:34:16;;;;;;;;;14.00;12.25;;;;;11.53;58.74;98140.69;5093371;28;8856;-63
2022/03/31 10:36:45;;;;;;;;;16.75;13.50;;;;;11.55;58.72;98134.19;5093999;28;8835;-64
2022/03/31 10:39:13;;;;;;;;;23.00;21.25;;;;;11.62;58.75;98131.69;5092717;28;8843;-63
2022/03/31 10:41:42;;;;;;;;;12.75;12.00;;;;;11.63;58.25;98131.53;5092937;28;8843;-63
2022/03/31 10:44:10;;;;;;;;;16.00;12.75;;;;;11.55;58.44;98128.84;5092014;28;8835;-63
2022/03/31 10:46:38;;;;;;;;;12.50;12.00;;;;;11.43;58.57;98132.03;5092748;28;8819;-63
2022/03/31 10:49:09;;;;;;;;;16.00;15.50;;;;;11.32;59.01;98129.75;5094458;28;8851;-63
2022/03/31 10:51:36;;;;;;;;;16.00;14.75;;;;;11.24;58.94;98133.25;5092861;28;8850;-63
2022/03/31 10:54:04;;;;;;;;;18.67;16.33;;;;;11.10;59.74;98134.00;5093812;28;8831;-63
2022/03/31 10:56:32;;;;;;;;;15.00;14.50;;;;;11.00;59.82;98130.66;5094549;28;9502;-63
2022/03/31 10:59:00;;;;;;;;;20.75;19.00;;;;;10.89;60.37;98120.38;5093756;28;8836;-63
2022/03/31 11:01:28;;;;;;;;;22.00;17.00;;;;;10.81;60.04;98123.03;5094282;28;8921;-63
2022/03/31 11:03:56;;;;;;;;;18.25;16.00;;;;;10.78;60.12;98125.22;5093412;28;8827;-63
2022/03/31 11:06:23;;;;;;;;;15.75;12.75;;;;;10.71;60.15;98124.22;5094888;28;8832;-63
2022/03/31 11:08:51;;;;;;;;;15.00;12.50;;;;;10.60;60.70;98125.38;5093856;28;8840;-63
2022/03/31 11:11:19;;;;;;;;;20.00;17.50;;;;;10.52;60.81;98112.06;5094220;28;8875;-63
2022/03/31 11:13:47;;;;;;;;;14.75;14.25;;;;;10.49;60.37;98123.06;5093532;28;8831;-64
2022/03/31 11:16:16;;;;;;;;;14.00;11.50;;;;;10.42;60.83;98114.06;5095576;28;8831;-63
2022/03/31 11:18:44;;;;;;;;;21.00;19.00;;;;;10.35;61.01;98106.91;5091779;28;8924;-63
2022/03/31 11:21:11;;;;;;;;;21.00;16.50;;;;;10.26;61.39;98115.88;5091448;28;8847;-63
2022/03/31 11:23:39;;;;;;;;;16.75;15.50;;;;;10.16;61.34;98112.56;5091919;28;8841;-64
2022/03/31 11:26:07;;;;;;;;;14.50;14.00;;;;;10.06;61.66;98118.03;5092114;28;8905;-63
2022/03/31 11:28:35;;;;;;;;;11.00;9.80;;;;;9.96;61.32;98109.31;5092055;28;8844;-63
2022/03/31 11:31:07;;;;;;;;;16.00;14.00;;;;;9.89;61.49;98113.63;5093945;28;8827;-64
2022/03/31 11:33:36;;;;;;;;;12.50;12.25;;;;;9.80;61.86;98103.97;5093859;28;8835;-63
2022/03/31 11:36:04;;;;;;;;;9.40;9.40;;;;;9.78;61.95;98105.13;5093063;28;8986;-62
2022/03/31 11:38:31;;;;;;;;;18.20;16.00;;;;;9.75;61.88;98106.28;5093171;28;8824;-63
2022/03/31 11:40:59;;;;;;;;;12.00;10.50;;;;;9.79;61.69;98101.47;5093891;28;8835;-63
2022/03/31 11:43:27;;;;;;;;;18.20;12.00;;;;;9.91;61.60;98095.69;5093409;28;8944;-63
2022/03/31 11:45:55;;;;;;;;;16.60;15.80;;;;;10.07;61.16;98101.06;5091509;28;8835;-63
2022/03/31 11:48:25;;;;;;;;;18.00;14.00;;;;;10.21;60.84;98096.91;5091147;28;8863;-63